Date,TemperatureHighF,TemperatureAvgF,TemperatureLowF,DewpointHighF,DewpointAvgF,DewpointLowF,HumidityHigh,HumidityAvg,HumidityLow,PressureMaxIn,PressureMinIn,WindSpeedMaxMPH,WindSpeedAvgMPH,GustSpeedMaxMPH,PrecipitationSumIn
2013-6-1,85,77,73,75,72,70,98,86,66,29.95,29.86,16,4,22,0.40
2013-6-2,86,79,73,76,73,71,99,83,62,29.91,29.81,14,4,25,0.00
2013-6-3,83,78,75,76,74,72,96,88,73,29.91,29.82,12,2,16,0.10
2013-6-4,83,78,75,74,72,70,93,83,68,29.92,29.85,19,3,30,0.00
2013-6-5,83,77,73,74,72,70,96,84,65,29.91,29.78,14,5,29,0.10
2013-6-6,80,76,73,76,73,72,98,92,80,29.78,29.58,31,15,58,1.29
2013-6-7,83,79,75,74,73,71,94,83,69,29.86,29.69,15,5,24,0.00
2013-6-8,85,77,71,78,73,70,98,87,71,30.00,29.87,18,4,30,1.15
2013-6-9,88,78,72,77,74,71,99,86,59,29.99,29.91,16,3,25,0.22
2013-6-10,88,80,75,76,74,67,97,83,59,29.98,29.91,19,4,30,0.00
2013-6-11,90,80,74,78,73,70,96,82,58,29.99,29.91,15,1,24,1.27
2013-6-12,87,82,74,77,73,70,88,73,60,29.98,29.90,22,6,28,0.00
2013-6-13,86,81,77,77,74,72,94,81,67,29.95,29.82,21,6,28,0.00
2013-6-14,85,81,78,74,73,72,85,77,66,29.86,29.78,22,8,34,0.00
2013-6-15,86,82,77,77,74,70,89,79,70,29.94,29.82,19,6,31,0.00
2013-6-16,88,81,76,78,75,73,96,83,63,29.97,29.91,19,4,23,0.00
2013-6-17,89,83,77,77,75,71,94,77,59,29.97,29.88,22,5,28,0.00
2013-6-18,89,83,77,77,75,70,93,76,58,29.95,29.86,19,4,23,0.00
2013-6-19,88,82,75,78,75,72,92,79,65,29.92,29.87,18,3,24,0.02
2013-6-20,87,82,76,76,73,69,89,74,57,29.98,29.91,18,4,34,0.00
2013-6-21,88,79,74,76,72,70,92,78,58,30.00,29.92,17,3,24,0.02
2013-6-22,89,80,72,74,71,65,95,76,49,30.00,29.93,19,4,22,0.00
2013-6-23,90,79,73,75,73,67,98,84,48,30.02,29.94,26,2,48,1.44
2013-6-24,92,81,74,76,73,67,97,80,44,30.06,29.94,19,2,23,0.08
2013-6-25,91,82,74,76,73,67,94,77,46,30.03,29.89,18,3,33,0.22
2013-6-26,88,80,75,76,71,-100,92,75,60,29.98,29.92,14,-4,24,0.23
2013-6-27,87,80,72,76,73,69,96,80,63,29.97,29.86,19,3,29,0.00
2013-6-28,86,81,75,77,73,-100,92,80,63,29.89,29.77,21,4,31,0.15
2013-6-29,86,81,77,76,75,72,93,82,64,29.80,29.72,23,4,35,0.07
2013-6-30,86,81,75,78,75,72,95,83,68,29.80,29.73,22,6,37,0.27